Time;durP1;ratioP1;P1;durP2;ratioP2;P2;SDS_P1;SDS_P2;PMS_P1;PMS_P2;Temp;Humidity;BMP_temperature;BMP_pressure;BME280_temperature;BME280_humidity;BME280_pressure;Samples;Min_cycle;Max_cycle;Signal;HPM_P1;HPM_P2
2023/04/10 00:01:55;;;;;;;12.70;7.70;;;;;;;-141.97;46.32;47626.72;5110643;28;20526;-84
2023/04/10 00:04:20;;;;;;;12.43;7.30;;;;;;;-141.97;46.35;47672.84;5110017;28;20175;-85
2023/04/10 00:06:47;;;;;;;12.20;7.60;;;;;;;-141.97;47.05;47632.47;5109900;28;20682;-84
2023/04/10 00:09:13;;;;;;;11.67;7.23;;;;;;;-141.97;46.99;47617.09;5111668;28;20201;-83
2023/04/10 00:11:38;;;;;;;12.80;7.87;;;;;;;-141.97;47.65;47657.47;5111536;28;20525;-84
2023/04/10 00:14:04;;;;;;;14.03;7.70;;;;;;;-141.97;47.99;47619.03;5111515;28;20195;-84
2023/04/10 00:16:29;;;;;;;12.93;7.67;;;;;;;-141.97;48.12;47609.41;5110623;28;20241;-83
2023/04/10 00:18:55;;;;;;;12.77;7.27;;;;;;;-141.97;47.99;47620.94;5110174;28;20624;-84
2023/04/10 00:21:20;;;;;;;12.40;7.20;;;;;;;-141.97;48.29;47634.41;5111043;28;20160;-84
2023/04/10 00:23:45;;;;;;;10.97;7.30;;;;;;;-141.97;48.56;47676.69;5111604;28;20155;-83
2023/04/10 00:26:11;;;;;;;11.70;7.33;;;;;;;-141.97;48.35;47557.53;5110852;28;20614;-84
2023/04/10 00:28:37;;;;;;;11.90;7.10;;;;;;;-141.97;48.52;47738.19;5110970;28;20160;-84
2023/04/10 00:31:03;;;;;;;11.87;7.13;;;;;;;-141.97;48.71;47765.09;5111583;28;20702;-83
2023/04/10 00:33:29;;;;;;;11.63;7.10;;;;;;;-141.97;48.41;47772.78;5110127;28;20176;-83
2023/04/10 00:35:54;;;;;;;12.80;7.10;;;;;;;-141.97;48.89;47624.78;5114309;28;20533;-84
2023/04/10 00:38:20;;;;;;;12.60;7.10;;;;;;;-141.97;48.31;47674.78;5114454;28;20167;-84
2023/04/10 00:40:45;;;;;;;12.87;7.73;;;;;;;-141.97;48.58;47657.47;5114488;27;20196;-84
2023/04/10 00:43:11;;;;;;;12.90;7.50;;;;;;;-141.97;49.25;47609.41;5114720;28;20195;-84
2023/04/10 00:45:36;;;;;;;13.07;7.40;;;;;;;-141.97;49.18;47672.84;5115309;28;20164;-83
2023/04/10 00:48:02;;;;;;;13.53;8.00;;;;;;;-141.97;48.96;47619.03;5116892;28;20242;-83
2023/04/10 00:50:27;;;;;;;13.60;7.80;;;;;;;-141.97;48.89;47642.09;5117207;28;20171;-83
2023/04/10 00:52:53;;;;;;;12.80;7.97;;;;;;;-141.97;49.51;47657.47;5114641;28;20236;-84
2023/04/10 00:55:18;;;;;;;12.63;7.53;;;;;;;-141.97;48.93;47613.25;5114381;28;20596;-83
2023/04/10 00:57:45;;;;;;;13.20;7.90;;;;;;;-141.97;48.93;47595.97;5115708;28;20258;-84
2023/04/10 01:00:13;;;;;;;12.83;7.53;;;;;;;-141.97;48.70;47680.53;5113076;28;20163;-83
2023/04/10 01:02:39;;;;;;;11.53;6.80;;;;;;;-141.97;48.93;47569.06;5113494;28;20601;-83
2023/04/10 01:05:05;;;;;;;13.10;7.57;;;;;;;-141.97;49.13;47780.47;5113649;28;20262;-83
2023/04/10 01:07:42;;;;;;;12.40;7.50;;;;;;;-141.97;50.03;47649.78;5114237;28;20582;-83
2023/04/10 01:10:33;;;;;;;12.37;7.63;;;;;;;-141.97;50.88;47649.78;5114884;28;20197;-83
2023/04/10 01:13:20;;;;;;;13.57;8.17;;;;;;;-141.97;51.62;47588.28;5113806;28;20183;-84
2023/04/10 01:16:17;;;;;;;15.80;7.87;;;;;;;-141.97;53.05;47653.63;5114187;28;20178;-83
2023/04/10 01:19:04;;;;;;;13.97;7.67;;;;;;;-141.97;55.30;47651.69;5072154;28;20193;-83
2023/04/10 01:21:33;;;;;;;14.30;8.33;;;;;;;-141.97;55.75;47730.50;5071252;28;20184;-83
2023/04/10 01:24:10;;;;;;;14.30;7.93;;;;;;;-141.97;55.13;47619.03;5054343;28;20197;-83
2023/04/10 01:26:39;;;;;;;17.80;8.77;;;;;;;-141.97;55.83;47645.94;5070995;28;20286;-83
2023/04/10 01:29:11;;;;;;;16.63;8.50;;;;;;;-141.97;55.90;47649.78;5071118;28;20199;-83
2023/04/10 01:31:43;;;;;;;14.07;8.83;;;;;;;-141.97;56.78;47653.63;5071436;28;20160;-84
2023/04/10 01:34:34;;;;;;;16.20;8.67;;;;;;;-141.97;57.42;47661.31;5071143;28;20197;-84
2023/04/10 01:37:07;;;;;;;17.53;8.90;;;;;;;-141.97;57.14;47638.25;5012394;28;20331;-84
2023/04/10 01:39:36;;;;;;;16.77;9.27;;;;;;;-141.97;57.36;47649.78;5005709;28;21128;-84
2023/04/10 01:42:05;;;;;;;16.47;9.00;;;;;;;-141.97;57.71;47638.25;5013082;28;20195;-84
2023/04/10 01:44:33;;;;;;;16.60;8.90;;;;;;;-141.97;58.00;47638.25;4995868;28;20178;-84
2023/04/10 01:47:00;;;;;;;18.20;9.60;;;;;;;-141.97;58.24;47630.56;4994405;28;20698;-84
2023/04/10 01:49:27;;;;;;;18.63;10.07;;;;;;;-141.97;58.91;47667.06;5011020;28;20187;-84
2023/04/10 01:51:57;;;;;;;28.80;12.13;;;;;;;-141.97;59.20;47647.84;5011820;28;20289;-84
2023/04/10 01:54:27;;;;;;;35.57;17.57;;;;;;;-141.97;59.56;47665.16;4998916;28;20706;-83
2023/04/10 01:56:53;;;;;;;25.57;13.50;;;;;;;-141.97;59.98;47622.88;5071600;28;20411;-84
2023/04/10 01:59:19;;;;;;;19.50;11.23;;;;;;;-141.97;60.26;47611.34;5070431;28;20176;-84
2023/04/10 02:01:45;;;;;;;23.73;11.13;;;;;;;-141.97;59.92;47626.72;5070626;28;20188;-83
2023/04/10 02:04:10;;;;;;;19.47;10.37;;;;;;;-141.97;59.95;47603.66;5071504;28;20637;-84
2023/04/10 02:06:50;;;;;;;17.87;9.67;;;;;;;-141.97;60.16;47665.16;5069867;28;20266;-84
2023/04/10 02:09:27;;;;;;;18.53;10.40;;;;;;;-141.97;60.55;47684.38;5070783;28;20174;-84
2023/04/10 02:12:05;;;;;;;19.00;9.93;;;;;;;-141.97;60.41;47626.72;5069973;28;20192;-84
2023/04/10 02:14:35;;;;;;;18.73;9.87;;;;;;;-141.97;60.53;47680.53;5111123;27;20277;-84
2023/04/10 02:17:01;;;;;;;18.40;9.50;;;;;;;-141.97;59.91;47559.44;5113067;28;20709;-83
2023/04/10 02:19:29;;;;;;;17.73;9.50;;;;;;;-141.97;59.20;47553.69;5112536;28;20174;-85
2023/04/10 02:21:56;;;;;;;16.70;9.10;;;;;;;-141.97;59.20;47624.78;5112492;28;20171;-82
2023/04/10 02:24:22;;;;;;;16.97;9.13;;;;;;;-141.97;59.03;47738.19;5112895;28;20416;-82
2023/04/10 02:26:50;;;;;;;17.50;8.40;;;;;;;-141.97;59.39;47630.56;5112683;28;20191;-83
2023/04/10 02:29:16;;;;;;;16.93;8.93;;;;;;;-141.97;59.12;47647.84;5113352;28;20691;-83
2023/04/10 02:31:42;;;;;;;15.10;8.30;;;;;;;-141.97;58.56;47630.56;5111744;28;20603;-83
2023/04/10 02:34:08;;;;;;;16.80;9.43;;;;;;;-141.97;58.69;47638.25;5112385;28;20285;-83
2023/04/10 02:36:38;;;;;;;16.83;9.87;;;;;;;-141.97;59.61;47672.84;5112792;28;20305;-83
2023/04/10 02:39:04;;;;;;;19.47;10.97;;;;;;;-141.97;60.00;47565.22;5112255;28;20171;-83
2023/04/10 02:41:29;;;;;;;19.17;10.93;;;;;;;-141.97;60.55;47619.03;5111437;28;20204;-83
2023/04/10 02:43:55;;;;;;;19.30;11.17;;;;;;;-141.97;62.21;47659.38;5112662;28;20570;-83
2023/04/10 02:46:20;;;;;;;22.20;11.67;;;;;;;-141.97;62.84;47622.88;5112301;28;20238;-83
2023/04/10 02:48:46;;;;;;;22.10;12.03;;;;;;;-141.97;64.29;47676.69;5111266;28;20163;-83
2023/04/10 02:51:12;;;;;;;21.90;12.07;;;;;;;-141.97;65.05;47684.38;5112963;28;20166;-83
2023/04/10 02:53:37;;;;;;;20.97;11.50;;;;;;;-141.97;64.89;47665.16;5112679;28;20623;-84
2023/04/10 02:56:05;;;;;;;20.13;11.60;;;;;;;-141.97;66.10;47599.81;5111826;28;20187;-82
2023/04/10 02:58:31;;;;;;;23.27;11.43;;;;;;;-141.97;67.74;47640.16;5112632;28;20163;-82
2023/04/10 03:00:56;;;;;;;22.03;11.97;;;;;;;-141.97;68.18;47711.28;5111829;28;20412;-82
2023/04/10 03:03:22;;;;;;;22.67;12.50;;;;;;;-141.97;67.75;47630.56;5112307;28;20164;-82
2023/04/10 03:05:48;;;;;;;22.97;12.17;;;;;;;-141.97;68.08;47580.59;5112148;28;20167;-82
2023/04/10 03:08:14;;;;;;;22.87;12.20;;;;;;;-141.97;67.49;47580.59;5112064;28;20225;-82
2023/04/10 03:10:42;;;;;;;22.20;11.97;;;;;;;-141.97;66.94;47661.31;5111755;28;20893;-82
2023/04/10 03:13:07;;;;;;;26.70;12.97;;;;;;;-141.97;66.73;47632.47;5112610;28;20405;-82
2023/04/10 03:15:33;;;;;;;23.00;12.43;;;;;;;-141.97;66.00;47672.84;5112598;28;21091;-82
2023/04/10 03:17:58;;;;;;;22.43;12.17;;;;;;;-141.97;65.82;47638.25;5111981;28;20195;-82
2023/04/10 03:20:23;;;;;;;22.80;12.60;;;;;;;-141.97;65.53;47544.06;5112007;28;20199;-81
2023/04/10 03:22:49;;;;;;;26.13;13.57;;;;;;;-141.97;65.10;47674.78;5111930;28;20216;-83
2023/04/10 03:25:15;;;;;;;23.10;13.20;;;;;;;-141.97;65.08;47638.25;5111418;28;20185;-83
2023/04/10 03:27:40;;;;;;;23.37;12.57;;;;;;;-141.97;64.51;47669.00;5111534;28;20557;-83
2023/04/10 03:30:07;;;;;;;27.70;13.70;;;;;;;-141.97;64.24;47653.63;5110422;28;20175;-83
2023/04/10 03:32:32;;;;;;;24.17;13.00;;;;;;;-141.97;64.35;47657.47;5112342;28;20174;-83
2023/04/10 03:34:58;;;;;;;26.77;12.50;;;;;;;-141.97;64.88;47657.47;5111826;28;20467;-83
2023/04/10 03:37:24;;;;;;;24.37;12.27;;;;;;;-141.97;64.61;47628.63;5117130;28;20223;-83
2023/04/10 03:39:49;;;;;;;21.40;12.63;;;;;;;-141.97;64.71;47649.78;5111504;28;20631;-82
2023/04/10 03:42:15;;;;;;;40.77;21.60;;;;;;;-141.97;64.29;47628.63;5112680;28;20409;-82
2023/04/10 03:44:40;;;;;;;25.30;14.30;;;;;;;-141.97;64.47;47703.59;5121152;28;20160;-82
2023/04/10 03:47:05;;;;;;;29.73;15.50;;;;;;;-141.97;64.94;47682.47;5113446;28;20191;-82
2023/04/10 03:49:31;;;;;;;27.73;15.23;;;;;;;-141.97;65.63;47526.75;5110569;28;20258;-82
2023/04/10 03:51:56;;;;;;;27.60;15.03;;;;;;;-141.97;66.97;47626.72;5110247;28;20175;-82
2023/04/10 03:54:22;;;;;;;31.00;15.87;;;;;;;-141.97;68.52;47634.41;5111772;28;20195;-83
2023/04/10 03:56:47;;;;;;;26.67;14.87;;;;;;;-141.97;68.64;47634.41;5111702;28;20224;-83
2023/04/10 03:59:12;;;;;;;29.70;16.10;;;;;;;-141.97;69.19;47642.09;5111266;28;20168;-83
2023/04/10 04:01:38;;;;;;;31.63;15.97;;;;;;;-141.97;70.36;47642.09;5112060;28;20653;-83
2023/04/10 04:04:04;;;;;;;27.50;14.43;;;;;;;-141.97;70.51;47615.19;5110179;28;20240;-83
2023/04/10 04:06:30;;;;;;;26.43;13.73;;;;;;;-141.97;71.02;47638.25;5110142;28;20282;-83
2023/04/10 04:08:56;;;;;;;29.13;14.03;;;;;;;-141.97;71.05;47622.88;5112916;28;20397;-84
2023/04/10 04:11:21;;;;;;;30.03;15.47;;;;;;;-141.97;71.28;47688.22;5115584;28;20457;-83
2023/04/10 04:13:46;;;;;;;25.97;13.43;;;;;;;-141.97;71.80;47649.78;5115717;28;20160;-84
2023/04/10 04:16:12;;;;;;;27.07;13.03;;;;;;;-141.97;71.62;47622.88;5128514;28;20191;-83
2023/04/10 04:18:37;;;;;;;34.97;18.20;;;;;;;-141.97;71.86;47670.91;5123516;28;20176;-84
2023/04/10 04:21:03;;;;;;;48.63;26.50;;;;;;;-141.97;71.66;47657.47;5114850;28;20254;-84
2023/04/10 04:23:28;;;;;;;41.17;24.13;;;;;;;-141.97;71.66;47647.84;5116141;28;20171;-84
2023/04/10 04:25:55;;;;;;;31.03;15.83;;;;;;;-141.97;71.91;47615.19;5116121;28;20167;-83
2023/04/10 04:28:21;;;;;;;26.60;12.57;;;;;;;-141.97;72.53;47640.16;5121221;28;20213;-83
2023/04/10 04:30:47;;;;;;;29.30;15.63;;;;;;;-141.97;72.31;47649.78;5116583;28;20917;-83
2023/04/10 04:33:13;;;;;;;63.73;31.43;;;;;;;-141.97;71.51;47669.00;5115090;28;20441;-83
2023/04/10 04:35:38;;;;;;;57.37;30.17;;;;;;;-141.97;70.53;47595.97;5115438;28;20167;-83
2023/04/10 04:38:03;;;;;;;63.93;34.90;;;;;;;-141.97;70.00;47653.63;5114720;28;20219;-83
2023/04/10 04:40:30;;;;;;;40.93;21.60;;;;;;;-141.97;68.81;47674.78;5114576;28;20171;-83
2023/04/10 04:42:55;;;;;;;46.50;24.00;;;;;;;-141.97;68.21;47657.47;5115336;28;20175;-83
2023/04/10 04:45:21;;;;;;;41.50;20.97;;;;;;;-141.97;68.09;47657.47;5113938;28;20443;-83
2023/04/10 04:47:46;;;;;;;47.63;24.80;;;;;;;-141.97;67.93;47611.34;5114518;27;20199;-84
2023/04/10 04:50:12;;;;;;;42.93;19.33;;;;;;;-141.97;67.32;47665.16;5115753;28;20250;-84
2023/04/10 04:52:37;;;;;;;32.53;17.10;;;;;;;-141.97;67.10;47680.53;5115059;28;20232;-83
2023/04/10 04:55:03;;;;;;;73.67;43.20;;;;;;;-141.97;68.71;47672.84;5114811;28;20198;-83
2023/04/10 04:57:28;;;;;;;111.63;62.40;;;;;;;-141.97;68.61;47630.56;5113640;28;20259;-83
2023/04/10 04:59:54;;;;;;;61.17;32.10;;;;;;;-141.97;68.02;47632.47;5114740;28;20183;-82
2023/04/10 05:02:21;;;;;;;69.03;36.87;;;;;;;-141.97;67.82;47665.16;5113190;28;20252;-84
2023/04/10 05:04:47;;;;;;;131.60;69.17;;;;;;;-141.97;66.67;47653.63;5114616;28;20155;-83
2023/04/10 05:07:12;;;;;;;167.77;92.20;;;;;;;-141.97;66.45;47592.13;5114120;28;21083;-84
2023/04/10 05:09:37;;;;;;;107.77;58.13;;;;;;;-141.97;65.95;47634.41;5114048;28;20630;-81
2023/04/10 05:12:03;;;;;;;66.00;37.17;;;;;;;-141.97;65.77;47636.31;5114287;28;20167;-83
2023/04/10 05:14:28;;;;;;;52.33;27.37;;;;;;;-141.97;65.57;47588.28;5114547;28;20534;-83
2023/04/10 05:16:54;;;;;;;55.73;32.40;;;;;;;-141.97;64.52;47645.94;5114539;28;20170;-83
2023/04/10 05:19:19;;;;;;;39.13;21.87;;;;;;;-141.97;64.27;47642.09;5114302;28;20182;-82
2023/04/10 05:21:45;;;;;;;37.63;19.67;;;;;;;-141.97;63.88;47663.22;5112455;28;20206;-83
2023/04/10 05:24:10;;;;;;;33.77;17.77;;;;;;;-141.97;63.67;47599.81;5114636;28;20691;-83
2023/04/10 05:26:36;;;;;;;29.63;14.27;;;;;;;-141.97;64.28;47761.25;5118651;28;20242;-83
2023/04/10 05:29:01;;;;;;;23.07;12.90;;;;;;;-141.97;64.25;47676.69;5113903;28;20163;-82
2023/04/10 05:31:27;;;;;;;24.00;12.90;;;;;;;-141.97;64.89;47624.78;5112731;28;20190;-83
2023/04/10 05:33:52;;;;;;;25.80;13.50;;;;;;;-141.97;65.04;47607.50;5114083;28;20213;-83
2023/04/10 05:36:17;;;;;;;21.20;12.03;;;;;;;-141.97;65.12;47692.06;5113698;28;20219;-83
2023/04/10 05:38:43;;;;;;;31.67;12.13;;;;;;;-141.97;63.97;47630.56;5113536;28;20564;-84
2023/04/10 05:41:08;;;;;;;21.37;11.80;;;;;;;-141.97;63.14;47692.06;5112137;28;20163;-84
2023/04/10 05:43:34;;;;;;;23.23;12.17;;;;;;;-141.97;63.59;47738.19;5113371;28;20156;-83
2023/04/10 05:45:59;;;;;;;20.10;11.43;;;;;;;-141.97;64.66;47657.47;5068501;27;20224;-83
2023/04/10 05:48:25;;;;;;;22.73;11.80;;;;;;;-141.97;64.28;47653.63;5068024;28;20323;-83
2023/04/10 05:50:51;;;;;;;22.50;11.20;;;;;;;-141.97;62.32;47565.22;5068818;28;20239;-84
2023/04/10 05:53:19;;;;;;;21.43;11.37;;;;;;;-141.97;62.13;47622.88;5069565;28;20176;-84
2023/04/10 05:55:44;;;;;;;21.33;10.50;;;;;;;-141.97;59.43;47674.78;5069983;28;20183;-84
2023/04/10 05:58:10;;;;;;;16.63;9.37;;;;;;;-141.97;59.86;47526.75;5069556;28;20177;-83
2023/04/10 06:00:36;;;;;;;18.20;9.53;;;;;;;-141.97;60.08;47674.78;5069180;28;20192;-82
2023/04/10 06:03:02;;;;;;;14.63;8.03;;;;;;;-141.97;59.17;47684.38;5068818;28;20180;-82
2023/04/10 06:05:27;;;;;;;18.50;9.17;;;;;;;-141.97;59.40;47611.34;5069236;28;20214;-83
2023/04/10 06:07:53;;;;;;;18.77;9.60;;;;;;;-141.97;58.67;47736.28;5068356;28;20390;-82
2023/04/10 06:10:18;;;;;;;20.87;10.07;;;;;;;-141.97;57.26;47649.78;5064925;28;20193;-82
2023/04/10 06:12:44;;;;;;;17.07;8.90;;;;;;;-141.97;56.59;47507.53;5049260;28;20192;-83
2023/04/10 06:15:10;;;;;;;21.57;9.87;;;;;;;-141.97;55.78;47763.19;5048967;28;20281;-84
2023/04/10 06:17:41;;;;;;;27.53;13.53;;;;;;;-141.97;54.23;47613.25;5062623;28;20203;-83
2023/04/10 06:20:07;;;;;;;23.90;12.80;;;;;;;-141.97;53.09;47626.72;5071015;28;20187;-84
2023/04/10 06:22:32;;;;;;;20.27;11.60;;;;;;;-141.97;52.33;47653.63;5069375;28;20183;-84
2023/04/10 06:24:58;;;;;;;15.00;8.27;;;;;;;-141.97;51.01;47665.16;5084593;28;20176;-85
2023/04/10 06:27:23;;;;;;;14.33;8.00;;;;;;;-141.97;51.20;47669.00;5066486;28;20259;-84
2023/04/10 06:29:49;;;;;;;15.53;8.50;;;;;;;-141.97;50.78;47624.78;5068769;28;20279;-84
2023/04/10 06:32:14;;;;;;;13.33;7.83;;;;;;;-141.97;49.47;47657.47;5074665;28;20199;-83
2023/04/10 06:34:40;;;;;;;14.27;8.07;;;;;;;-141.97;49.16;47749.72;5071461;28;20184;-84
2023/04/10 06:37:05;;;;;;;17.17;8.20;;;;;;;-141.97;49.00;47622.88;5058087;28;20227;-84
2023/04/10 06:39:30;;;;;;;15.20;8.37;;;;;;;-141.97;47.90;47670.91;5060970;28;20722;-83
2023/04/10 06:41:56;;;;;;;14.47;8.60;;;;;;;-141.97;47.75;47603.66;5053199;28;20173;-84
2023/04/10 06:44:22;;;;;;;14.13;7.33;;;;;;;-141.97;47.50;47669.00;5050407;28;20192;-84
2023/04/10 06:46:47;;;;;;;13.07;8.77;;;;;;;-141.97;47.22;47542.16;5051257;28;20279;-83
2023/04/10 06:49:13;;;;;;;14.83;8.53;;;;;;;-141.97;46.65;47672.84;5068218;28;20556;-84
2023/04/10 06:51:38;;;;;;;12.73;7.93;;;;;;;-141.97;46.13;47669.00;5072188;28;20161;-83
2023/04/10 06:54:04;;;;;;;14.97;8.67;;;;;;;-141.97;45.02;47572.91;5072912;28;20187;-82
2023/04/10 06:56:29;;;;;;;11.73;7.70;;;;;;;-141.97;44.15;47647.84;5070874;28;20179;-83
2023/04/10 06:58:55;;;;;;;14.33;8.70;;;;;;;-141.97;43.59;47647.84;5069849;28;20187;-83
2023/04/10 07:01:20;;;;;;;12.70;7.97;;;;;;;-141.97;43.55;47672.84;5062304;28;21840;-83
2023/04/10 07:03:46;;;;;;;15.93;9.03;;;;;;;-141.97;43.00;47615.19;5070550;28;20273;-83
2023/04/10 07:06:11;;;;;;;17.90;8.97;;;;;;;-141.97;42.02;47619.03;5070670;28;20244;-83
2023/04/10 07:08:37;;;;;;;15.23;9.13;;;;;;;-141.97;42.25;47695.91;5070495;28;20613;-84
2023/04/10 07:11:02;;;;;;;15.80;9.30;;;;;;;-141.97;41.69;47622.88;5071330;28;20173;-83
2023/04/10 07:13:28;;;;;;;29.10;15.23;;;;;;;-141.97;41.18;47644.00;5069938;28;20214;-83
2023/04/10 07:15:53;;;;;;;12.37;8.53;;;;;;;-141.97;40.11;47763.19;5069674;28;20183;-83
2023/04/10 07:18:18;;;;;;;12.63;8.23;;;;;;;-141.97;40.73;47549.84;5070893;28;20172;-83
2023/04/10 07:20:44;;;;;;;13.33;8.70;;;;;;;-141.97;40.16;47657.47;5087664;28;20599;-84
2023/04/10 07:23:09;;;;;;;18.17;9.60;;;;;;;-141.97;38.75;47736.28;5082393;28;20287;-84
2023/04/10 07:25:35;;;;;;;14.70;7.43;;;;;;;-141.97;38.58;47611.34;5073311;28;20169;-84
2023/04/10 07:28:01;;;;;;;16.00;9.33;;;;;;;-141.97;38.38;47628.63;5069491;28;20556;-81
2023/04/10 07:30:26;;;;;;;17.17;8.60;;;;;;;-141.97;39.78;47634.41;5070978;28;20169;-84
2023/04/10 07:32:52;;;;;;;12.17;8.00;;;;;;;-141.97;39.36;47624.78;5071651;28;20168;-84
2023/04/10 07:35:17;;;;;;;15.23;8.47;;;;;;;-141.97;39.68;47647.84;5071491;28;20196;-84
2023/04/10 07:37:43;;;;;;;13.57;8.40;;;;;;;-141.97;40.03;47647.84;5070756;28;20566;-84
2023/04/10 07:40:09;;;;;;;15.30;8.27;;;;;;;-141.97;38.90;47570.97;5070835;28;20574;-84
2023/04/10 07:42:35;;;;;;;14.00;8.27;;;;;;;-141.97;38.39;47670.91;5071792;28;20184;-84
2023/04/10 07:45:00;;;;;;;15.53;9.53;;;;;;;-141.97;38.25;47644.00;5064164;28;20181;-84
2023/04/10 07:47:26;;;;;;;12.93;8.23;;;;;;;-141.97;37.64;47549.84;5062595;28;20680;-84
2023/04/10 07:49:51;;;;;;;14.30;8.50;;;;;;;-141.97;37.86;47759.34;5073002;28;20848;-84
2023/04/10 07:52:16;;;;;;;11.43;7.60;;;;;;;-141.97;37.33;47569.06;5074473;28;20187;-83
2023/04/10 07:54:42;;;;;;;14.53;7.47;;;;;;;-141.97;36.57;47601.72;5074491;28;20256;-83
2023/04/10 07:57:07;;;;;;;13.50;7.93;;;;;;;-141.97;35.60;47594.03;5074004;28;20181;-84
2023/04/10 07:59:33;;;;;;;9.90;7.40;;;;;;;-141.97;35.03;47615.19;5074716;28;20215;-84
2023/04/10 08:01:58;;;;;;;14.20;7.20;;;;;;;-141.97;34.76;47469.09;5074617;28;20280;-83
2023/04/10 08:04:23;;;;;;;9.10;6.23;;;;;;;-141.97;34.86;47515.22;5074430;28;20180;-84
2023/04/10 08:06:49;;;;;;;9.53;7.00;;;;;;;-141.97;34.55;47757.41;5072894;28;20204;-83
2023/04/10 08:09:14;;;;;;;8.43;6.13;;;;;;;-141.97;34.02;47605.56;5074346;28;20169;-83
2023/04/10 08:11:40;;;;;;;7.63;5.70;;;;;;;-141.97;33.68;47607.50;5074230;28;20172;-84
2023/04/10 08:14:05;;;;;;;10.50;6.40;;;;;;;-141.97;33.17;47457.56;5074578;28;20236;-84
2023/04/10 08:16:33;;;;;;;6.63;5.47;;;;;;;-141.97;32.13;47586.34;5076037;28;20177;-83
2023/04/10 08:19:00;;;;;;;7.97;5.47;;;;;;;-141.97;32.15;47599.81;5072834;28;20552;-83
2023/04/10 08:21:27;;;;;;;9.73;6.03;;;;;;;-141.97;32.19;47430.66;5072564;28;20725;-83
2023/04/10 08:23:54;;;;;;;9.77;6.10;;;;;;;-141.97;32.95;47711.28;5074391;28;20233;-83
2023/04/10 08:26:20;;;;;;;8.60;5.50;;;;;;;-141.97;32.83;47647.84;5062647;28;20236;-84
2023/04/10 08:28:50;;;;;;;9.57;5.37;;;;;;;-141.97;32.90;47574.81;5073508;28;20176;-83
2023/04/10 08:31:20;;;;;;;8.67;5.00;;;;;;;-141.97;33.11;47594.03;5072764;28;20268;-84
2023/04/10 08:33:46;;;;;;;5.73;4.50;;;;;;;-141.97;33.59;47592.13;5072326;28;20203;-84
2023/04/10 08:36:16;;;;;;;5.17;4.10;;;;;;;-141.97;33.81;47544.06;5073255;28;20660;-84
2023/04/10 08:38:42;;;;;;;7.30;4.80;;;;;;;-141.97;34.27;47592.13;5074119;28;20176;-83
2023/04/10 08:41:16;;;;;;;15.83;4.77;;;;;;;-141.97;34.68;47611.34;5074015;28;20258;-83
2023/04/10 08:43:42;;;;;;;7.57;4.73;;;;;;;-141.97;34.14;47599.81;5073745;28;20168;-83
2023/04/10 08:46:08;;;;;;;7.53;4.40;;;;;;;-141.97;33.95;47611.34;5072941;28;20195;-83
2023/04/10 08:48:54;;;;;;;7.40;4.50;;;;;;;-141.97;33.58;47597.88;5073189;28;20201;-83
2023/04/10 08:51:25;;;;;;;6.43;4.57;;;;;;;-141.97;33.44;47567.13;5071950;28;20207;-84
2023/04/10 08:53:57;;;;;;;7.47;4.90;;;;;;;-141.97;33.72;47595.97;5073577;28;20665;-83
2023/04/10 08:56:23;;;;;;;7.17;4.50;;;;;;;-141.97;33.87;47634.41;5073124;28;20172;-83
2023/04/10 08:58:50;;;;;;;5.93;4.10;;;;;;;-141.97;33.78;47572.91;5073948;28;20165;-83
2023/04/10 09:01:19;;;;;;;5.53;4.40;;;;;;;-141.97;34.57;47584.44;5072667;28;20184;-83
2023/04/10 09:03:47;;;;;;;6.70;4.70;;;;;;;-141.97;34.65;47422.97;5073500;28;20170;-84
2023/04/10 09:06:12;;;;;;;5.33;4.17;;;;;;;-141.97;34.41;47588.28;5073255;28;20676;-82
2023/04/10 09:08:37;;;;;;;5.17;4.20;;;;;;;-141.97;34.49;47605.56;5072635;28;20268;-83
2023/04/10 09:11:04;;;;;;;5.50;4.30;;;;;;;-141.97;34.21;47636.31;5073873;28;20165;-84
2023/04/10 09:13:37;;;;;;;8.03;3.70;;;;;;;-141.97;33.74;47595.97;5073085;28;20252;-83
2023/04/10 09:16:03;;;;;;;5.90;4.40;;;;;;;-141.97;33.64;47578.66;5075457;28;20161;-83
2023/04/10 09:18:49;;;;;;;5.47;4.30;;;;;;;-141.97;33.78;47624.78;5072804;28;20207;-83
2023/04/10 09:21:18;;;;;;;6.43;4.23;;;;;;;-141.97;33.60;47569.06;5073780;28;20161;-83
2023/04/10 09:23:45;;;;;;;6.23;4.00;;;;;;;-141.97;33.31;47580.59;5073345;28;20177;-83
2023/04/10 09:26:24;;;;;;;5.60;3.87;;;;;;;-141.97;33.22;47586.34;5073712;28;20168;-84
2023/04/10 09:28:59;;;;;;;6.67;4.20;;;;;;;-141.97;33.64;47705.53;5072163;28;20213;-83
2023/04/10 09:31:43;;;;;;;6.67;4.20;;;;;;;-141.97;33.35;47707.44;5072363;28;20200;-84
2023/04/10 09:34:13;;;;;;;6.60;4.10;;;;;;;-141.97;33.30;47601.72;5059594;28;20301;-82
2023/04/10 09:36:40;;;;;;;5.40;4.13;;;;;;;-141.97;33.46;47476.78;5072480;28;20224;-83
2023/04/10 09:39:07;;;;;;;8.63;4.53;;;;;;;-141.97;33.64;47557.53;5072602;28;20766;-83
2023/04/10 09:41:33;;;;;;;7.97;4.13;;;;;;;-141.97;33.74;47480.63;5072467;28;20259;-85
2023/04/10 09:44:06;;;;;;;5.60;4.00;;;;;;;-141.97;34.24;47590.19;5073198;28;20254;-83
2023/04/10 09:46:32;;;;;;;6.10;4.40;;;;;;;-141.97;34.02;47594.03;5070153;28;20298;-83
2023/04/10 09:49:00;;;;;;;7.00;4.50;;;;;;;-141.97;34.27;47595.97;5072199;28;20200;-83
2023/04/10 09:51:33;;;;;;;5.87;4.40;;;;;;;-141.97;34.55;47586.34;5072569;28;20577;-83
2023/04/10 09:54:00;;;;;;;7.03;4.30;;;;;;;-141.97;35.15;47609.41;5073199;28;20163;-83
2023/04/10 09:56:26;;;;;;;6.30;4.20;;;;;;;-141.97;35.11;47642.09;5072533;28;20172;-83
2023/04/10 09:58:57;;;;;;;5.20;3.93;;;;;;;-141.97;35.78;47592.13;5072696;28;20180;-83
2023/04/10 10:01:24;;;;;;;6.80;4.20;;;;;;;-141.97;35.61;47580.59;5072358;28;20160;-82
2023/04/10 10:03:50;;;;;;;11.07;4.10;;;;;;;-141.97;36.12;47553.69;5072041;28;20176;-83
2023/04/10 10:06:15;;;;;;;8.63;4.40;;;;;;;-141.97;35.92;47561.38;5071627;28;20173;-83
2023/04/10 10:08:41;;;;;;;9.40;4.60;;;;;;;-141.97;36.26;47595.97;5071348;28;20596;-83
2023/04/10 10:11:10;;;;;;;10.70;4.80;;;;;;;-141.97;36.09;47565.22;5071974;28;20173;-83
2023/04/10 10:13:55;;;;;;;9.17;4.50;;;;;;;-141.97;36.24;47619.03;5067249;28;20835;-84
2023/04/10 10:16:40;;;;;;;9.30;4.40;;;;;;;-141.97;36.35;47534.44;5052960;28;20615;-82
2023/04/10 10:19:19;;;;;;;7.47;5.00;;;;;;;-141.97;36.44;47553.69;5071639;28;20186;-83
2023/04/10 10:21:45;;;;;;;6.70;5.03;;;;;;;-141.97;36.50;47592.13;5071581;28;20627;-85
2023/04/10 10:24:12;;;;;;;6.93;4.77;;;;;;;-141.97;36.70;47547.91;5075177;28;20188;-82
2023/04/10 10:26:38;;;;;;;6.40;4.30;;;;;;;-141.97;36.67;47595.97;5083660;28;20211;-83
2023/04/10 10:29:12;;;;;;;8.70;5.07;;;;;;;-141.97;37.02;47622.88;5071304;28;20599;-84
2023/04/10 10:31:37;;;;;;;8.73;5.10;;;;;;;-141.97;37.15;47626.72;5070935;28;20238;-83
2023/04/10 10:34:06;;;;;;;7.50;4.97;;;;;;;-141.97;37.81;47592.13;5071504;28;20189;-82
2023/04/10 10:36:32;;;;;;;9.27;5.23;;;;;;;-141.97;37.87;47624.78;5069523;28;20688;-84
2023/04/10 10:39:33;;;;;;;8.17;5.50;;;;;;;-141.97;37.74;47572.91;5061364;28;20232;-83
2023/04/10 10:42:29;;;;;;;8.63;5.13;;;;;;;-141.97;38.85;47615.19;5015809;28;20216;-84
2023/04/10 10:44:55;;;;;;;9.23;5.57;;;;;;;-141.97;39.22;47611.34;5046147;28;20216;-82
2023/04/10 10:47:26;;;;;;;10.70;5.23;;;;;;;-141.97;38.61;47601.72;5047351;28;20220;-83
2023/04/10 10:50:04;;;;;;;7.80;5.60;;;;;;;-141.97;38.65;47592.13;5048056;28;20706;-84
2023/04/10 10:52:43;;;;;;;7.70;5.43;;;;;;;-141.97;39.39;47634.41;5048928;28;20239;-84
2023/04/10 10:55:20;;;;;;;9.53;5.60;;;;;;;-141.97;39.32;47617.09;5049329;28;20177;-85
2023/04/10 10:58:08;;;;;;;6.97;5.20;;;;;;;-141.97;38.53;47561.38;5049116;28;20249;-84
2023/04/10 11:00:49;;;;;;;8.13;5.70;;;;;;;-141.97;38.07;47607.50;5049596;28;20196;-83
2023/04/10 11:03:14;;;;;;;8.70;5.77;;;;;;;-141.97;37.96;47617.09;5049768;28;20659;-83
2023/04/10 11:05:58;;;;;;;9.53;5.80;;;;;;;-141.97;38.14;47590.19;5046493;28;20177;-84
2023/04/10 11:08:53;;;;;;;8.97;5.87;;;;;;;-141.97;38.30;47645.94;5049913;28;20722;-83
2023/04/10 11:11:26;;;;;;;7.43;5.60;;;;;;;-141.97;38.29;47605.56;5051180;28;20188;-85
2023/04/10 11:13:51;;;;;;;8.60;5.30;;;;;;;-141.97;38.08;47615.19;5037672;28;20258;-85